sensor_id;sensor_type;location;lat;lon;timestamp;pressure;altitude;pressure_sealevel;temperature;humidity
25947;BME280;13745;51.470;9.894;2023-08-30T00:00:55;98644.63;;;13.92;84.29
25947;BME280;13745;51.470;9.894;2023-08-30T00:03:40;98647.38;;;13.87;84.40
25947;BME280;13745;51.470;9.894;2023-08-30T00:06:25;98644.91;;;13.84;84.30
25947;BME280;13745;51.470;9.894;2023-08-30T00:09:11;98641.56;;;13.81;84.51
25947;BME280;13745;51.470;9.894;2023-08-30T00:11:57;98645.25;;;13.75;84.10
25947;BME280;13745;51.470;9.894;2023-08-30T00:14:42;98650.69;;;13.69;84.32
25947;BME280;13745;51.470;9.894;2023-08-30T00:17:27;98658.63;;;13.66;84.46
25947;BME280;13745;51.470;9.894;2023-08-30T00:20:13;98651.69;;;13.65;84.58
25947;BME280;13745;51.470;9.894;2023-08-30T00:22:58;98656.13;;;13.63;84.94
25947;BME280;13745;51.470;9.894;2023-08-30T00:25:44;98655.28;;;13.62;84.69
25947;BME280;13745;51.470;9.894;2023-08-30T00:28:31;98657.94;;;13.61;85.02
25947;BME280;13745;51.470;9.894;2023-08-30T00:31:18;98651.97;;;13.59;85.21
25947;BME280;13745;51.470;9.894;2023-08-30T00:34:03;98660.69;;;13.58;85.40
25947;BME280;13745;51.470;9.894;2023-08-30T00:36:48;98655.56;;;13.55;85.17
25947;BME280;13745;51.470;9.894;2023-08-30T00:39:33;98659.00;;;13.55;85.16
25947;BME280;13745;51.470;9.894;2023-08-30T00:42:20;98652.19;;;13.53;85.36
25947;BME280;13745;51.470;9.894;2023-08-30T00:45:06;98659.19;;;13.51;85.23
25947;BME280;13745;51.470;9.894;2023-08-30T00:47:51;98656.66;;;13.49;85.58
25947;BME280;13745;51.470;9.894;2023-08-30T00:50:37;98661.75;;;13.52;85.76
25947;BME280;13745;51.470;9.894;2023-08-30T00:53:23;98660.00;;;13.53;85.82
25947;BME280;13745;51.470;9.894;2023-08-30T00:56:08;98659.13;;;13.52;85.65
25947;BME280;13745;51.470;9.894;2023-08-30T00:58:55;98662.72;;;13.49;85.97
25947;BME280;13745;51.470;9.894;2023-08-30T01:01:40;98656.66;;;13.49;86.00
25947;BME280;13745;51.470;9.894;2023-08-30T01:04:26;98656.75;;;13.46;86.03
25947;BME280;13745;51.470;9.894;2023-08-30T01:07:12;98653.38;;;13.44;85.87
25947;BME280;13745;51.470;9.894;2023-08-30T01:09:57;98650.91;;;13.39;85.93
25947;BME280;13745;51.470;9.894;2023-08-30T01:12:47;98645.78;;;13.38;86.15
25947;BME280;13745;51.470;9.894;2023-08-30T01:15:36;98643.16;;;13.38;86.34
25947;BME280;13745;51.470;9.894;2023-08-30T01:18:26;98631.84;;;13.39;86.24
25947;BME280;13745;51.470;9.894;2023-08-30T01:21:17;98633.50;;;13.41;86.33
25947;BME280;13745;51.470;9.894;2023-08-30T01:24:07;98637.81;;;13.42;86.38
25947;BME280;13745;51.470;9.894;2023-08-30T01:27:07;98636.91;;;13.43;86.79
25947;BME280;13745;51.470;9.894;2023-08-30T01:29:54;98622.34;;;13.38;86.57
25947;BME280;13745;51.470;9.894;2023-08-30T01:32:41;98619.88;;;13.35;86.66
25947;BME280;13745;51.470;9.894;2023-08-30T01:35:28;98626.03;;;13.32;86.58
25947;BME280;13745;51.470;9.894;2023-08-30T01:38:18;98621.78;;;13.30;86.85
25947;BME280;13745;51.470;9.894;2023-08-30T01:41:04;98631.34;;;13.29;86.62
25947;BME280;13745;51.470;9.894;2023-08-30T01:43:50;98625.28;;;13.29;87.03
25947;BME280;13745;51.470;9.894;2023-08-30T01:46:37;98623.47;;;13.31;86.99
25947;BME280;13745;51.470;9.894;2023-08-30T01:49:24;98623.47;;;13.31;86.99
25947;BME280;13745;51.470;9.894;2023-08-30T01:52:10;98621.78;;;13.30;87.12
25947;BME280;13745;51.470;9.894;2023-08-30T01:54:57;98627.03;;;13.28;87.32
25947;BME280;13745;51.470;9.894;2023-08-30T01:57:43;98632.38;;;13.25;87.09
25947;BME280;13745;51.470;9.894;2023-08-30T02:00:30;98618.53;;;13.23;87.23
25947;BME280;13745;51.470;9.894;2023-08-30T02:03:16;98629.94;;;13.19;87.37
25947;BME280;13745;51.470;9.894;2023-08-30T02:06:06;98626.66;;;13.14;87.34
25947;BME280;13745;51.470;9.894;2023-08-30T02:08:58;98625.09;;;13.10;87.45
25947;BME280;13745;51.470;9.894;2023-08-30T02:11:49;98620.09;;;13.04;87.08
25947;BME280;13745;51.470;9.894;2023-08-30T02:14:36;98621.97;;;13.00;86.92
25947;BME280;13745;51.470;9.894;2023-08-30T02:17:24;98626.53;;;12.93;86.79
25947;BME280;13745;51.470;9.894;2023-08-30T02:20:10;98625.09;;;12.85;86.84
25947;BME280;13745;51.470;9.894;2023-08-30T02:22:58;98624.34;;;12.81;86.84
25947;BME280;13745;51.470;9.894;2023-08-30T02:25:44;98629.78;;;12.75;87.04
25947;BME280;13745;51.470;9.894;2023-08-30T02:28:29;98635.91;;;12.73;87.18
25947;BME280;13745;51.470;9.894;2023-08-30T02:31:15;98630.81;;;12.70;87.30
25947;BME280;13745;51.470;9.894;2023-08-30T02:34:01;98627.50;;;12.66;87.32
25947;BME280;13745;51.470;9.894;2023-08-30T02:36:47;98628.41;;;12.63;87.24
25947;BME280;13745;51.470;9.894;2023-08-30T02:39:32;98627.69;;;12.60;87.09
25947;BME280;13745;51.470;9.894;2023-08-30T02:42:18;98631.22;;;12.57;86.98
25947;BME280;13745;51.470;9.894;2023-08-30T02:45:04;98625.28;;;12.54;87.15
25947;BME280;13745;51.470;9.894;2023-08-30T02:47:49;98626.31;;;12.50;87.35
25947;BME280;13745;51.470;9.894;2023-08-30T02:50:36;98633.22;;;12.49;87.50
25947;BME280;13745;51.470;9.894;2023-08-30T02:53:21;98632.50;;;12.46;87.51
25947;BME280;13745;51.470;9.894;2023-08-30T02:56:06;98625.72;;;12.42;87.52
25947;BME280;13745;51.470;9.894;2023-08-30T02:58:51;98629.19;;;12.41;87.94
25947;BME280;13745;51.470;9.894;2023-08-30T03:01:37;98627.28;;;12.46;88.05
25947;BME280;13745;51.470;9.894;2023-08-30T03:04:22;98631.50;;;12.50;88.34
25947;BME280;13745;51.470;9.894;2023-08-30T03:07:09;98625.34;;;12.52;88.46
25947;BME280;13745;51.470;9.894;2023-08-30T03:09:55;98621.00;;;12.53;88.56
25947;BME280;13745;51.470;9.894;2023-08-30T03:12:40;98626.03;;;12.57;88.48
25947;BME280;13745;51.470;9.894;2023-08-30T03:15:25;98627.63;;;12.61;88.60
25947;BME280;13745;51.470;9.894;2023-08-30T03:18:10;98615.41;;;12.63;88.62
25947;BME280;13745;51.470;9.894;2023-08-30T03:20:59;98605.06;;;12.62;88.46
25947;BME280;13745;51.470;9.894;2023-08-30T03:23:46;98605.19;;;12.59;88.57
25947;BME280;13745;51.470;9.894;2023-08-30T03:26:32;98612.19;;;12.57;88.86
25947;BME280;13745;51.470;9.894;2023-08-30T03:29:17;98613.94;;;12.56;88.82
25947;BME280;13745;51.470;9.894;2023-08-30T03:32:02;98617.44;;;12.55;88.77
25947;BME280;13745;51.470;9.894;2023-08-30T03:34:48;98606.31;;;12.52;88.77
25947;BME280;13745;51.470;9.894;2023-08-30T03:37:33;98602.94;;;12.48;88.71
25947;BME280;13745;51.470;9.894;2023-08-30T03:40:20;98598.63;;;12.47;88.92
25947;BME280;13745;51.470;9.894;2023-08-30T03:43:06;98596.22;;;12.43;88.68
25947;BME280;13745;51.470;9.894;2023-08-30T03:45:52;98596.25;;;12.41;88.74
25947;BME280;13745;51.470;9.894;2023-08-30T03:48:37;98594.53;;;12.40;88.72
25947;BME280;13745;51.470;9.894;2023-08-30T03:51:23;98606.75;;;12.38;88.91
25947;BME280;13745;51.470;9.894;2023-08-30T03:54:08;98602.41;;;12.38;89.12
25947;BME280;13745;51.470;9.894;2023-08-30T03:56:58;98596.41;;;12.36;89.05
25947;BME280;13745;51.470;9.894;2023-08-30T03:59:44;98597.25;;;12.37;89.06
25947;BME280;13745;51.470;9.894;2023-08-30T04:02:31;98587.97;;;12.30;89.24
25947;BME280;13745;51.470;9.894;2023-08-30T04:05:16;98587.22;;;12.26;89.40
25947;BME280;13745;51.470;9.894;2023-08-30T04:08:01;98585.47;;;12.27;89.55
25947;BME280;13745;51.470;9.894;2023-08-30T04:10:47;98582.88;;;12.27;89.40
25947;BME280;13745;51.470;9.894;2023-08-30T04:13:34;98585.41;;;12.28;89.64
25947;BME280;13745;51.470;9.894;2023-08-30T04:16:21;98594.00;;;12.30;89.67
25947;BME280;13745;51.470;9.894;2023-08-30T04:19:07;98602.59;;;12.32;89.45
25947;BME280;13745;51.470;9.894;2023-08-30T04:21:52;98596.59;;;12.30;89.48
25947;BME280;13745;51.470;9.894;2023-08-30T04:24:37;98590.66;;;12.27;89.79
25947;BME280;13745;51.470;9.894;2023-08-30T04:27:22;98589.06;;;12.23;89.57
25947;BME280;13745;51.470;9.894;2023-08-30T04:30:12;98593.56;;;12.18;89.70
25947;BME280;13745;51.470;9.894;2023-08-30T04:32:58;98587.63;;;12.14;89.63
25947;BME280;13745;51.470;9.894;2023-08-30T04:35:43;98588.41;;;12.16;89.66
25947;BME280;13745;51.470;9.894;2023-08-30T04:38:29;98578.84;;;12.18;89.98
25947;BME280;13745;51.470;9.894;2023-08-30T04:41:15;98587.28;;;12.25;89.87
25947;BME280;13745;51.470;9.894;2023-08-30T04:44:01;98581.84;;;12.31;90.23
25947;BME280;13745;51.470;9.894;2023-08-30T04:46:49;98579.97;;;12.36;89.96
25947;BME280;13745;51.470;9.894;2023-08-30T04:49:39;98578.94;;;12.40;90.04
25947;BME280;13745;51.470;9.894;2023-08-30T04:52:25;98582.19;;;12.47;90.02
25947;BME280;13745;51.470;9.894;2023-08-30T04:55:13;98582.91;;;12.52;89.93
25947;BME280;13745;51.470;9.894;2023-08-30T04:57:58;98591.28;;;12.60;89.87
25947;BME280;13745;51.470;9.894;2023-08-30T05:00:47;98588.44;;;12.68;89.63
25947;BME280;13745;51.470;9.894;2023-08-30T05:03:34;98584.81;;;12.72;90.01
25947;BME280;13745;51.470;9.894;2023-08-30T05:06:19;98582.78;;;12.80;89.52
25947;BME280;13745;51.470;9.894;2023-08-30T05:09:04;98582.50;;;12.87;89.71
25947;BME280;13745;51.470;9.894;2023-08-30T05:11:51;98581.41;;;12.94;89.70
25947;BME280;13745;51.470;9.894;2023-08-30T05:14:36;98587.13;;;13.04;89.36
25947;BME280;13745;51.470;9.894;2023-08-30T05:17:21;98585.94;;;13.13;89.33
25947;BME280;13745;51.470;9.894;2023-08-30T05:20:09;98576.88;;;13.25;89.36
25947;BME280;13745;51.470;9.894;2023-08-30T05:22:54;98580.81;;;13.35;89.21
25947;BME280;13745;51.470;9.894;2023-08-30T05:25:41;98577.88;;;13.44;89.06
25947;BME280;13745;51.470;9.894;2023-08-30T05:28:26;98574.13;;;13.51;89.03
25947;BME280;13745;51.470;9.894;2023-08-30T05:31:11;98580.13;;;13.53;89.03
25947;BME280;13745;51.470;9.894;2023-08-30T05:34:15;98578.28;;;13.55;88.85
25947;BME280;13745;51.470;9.894;2023-08-30T05:37:26;98576.06;;;13.68;88.64
25947;BME280;13745;51.470;9.894;2023-08-30T05:40:36;98576.50;;;13.79;88.34
25947;BME280;13745;51.470;9.894;2023-08-30T05:43:26;98573.53;;;13.88;88.15
25947;BME280;13745;51.470;9.894;2023-08-30T05:46:11;98572.13;;;14.01;87.89
25947;BME280;13745;51.470;9.894;2023-08-30T05:48:59;98571.91;;;14.08;87.84
25947;BME280;13745;51.470;9.894;2023-08-30T05:51:44;98569.00;;;14.14;87.51
25947;BME280;13745;51.470;9.894;2023-08-30T05:54:32;98563.44;;;14.23;87.42
25947;BME280;13745;51.470;9.894;2023-08-30T05:57:18;98561.72;;;14.22;87.27
25947;BME280;13745;51.470;9.894;2023-08-30T06:00:04;98558.28;;;14.21;87.74
25947;BME280;13745;51.470;9.894;2023-08-30T06:02:57;98566.91;;;14.23;87.57
25947;BME280;13745;51.470;9.894;2023-08-30T06:05:42;98563.19;;;14.29;87.62
25947;BME280;13745;51.470;9.894;2023-08-30T06:08:28;98563.78;;;14.36;87.28
25947;BME280;13745;51.470;9.894;2023-08-30T06:11:14;98565.16;;;14.44;87.47
25947;BME280;13745;51.470;9.894;2023-08-30T06:14:00;98558.97;;;14.47;87.23
25947;BME280;13745;51.470;9.894;2023-08-30T06:16:45;98569.47;;;14.45;87.31
25947;BME280;13745;51.470;9.894;2023-08-30T06:19:30;98561.59;;;14.47;87.20
25947;BME280;13745;51.470;9.894;2023-08-30T06:22:15;98557.09;;;14.50;86.79
25947;BME280;13745;51.470;9.894;2023-08-30T06:25:01;98558.53;;;14.57;86.89
25947;BME280;13745;51.470;9.894;2023-08-30T06:27:58;98556.38;;;14.67;86.72
25947;BME280;13745;51.470;9.894;2023-08-30T06:30:45;98561.19;;;14.76;86.48
25947;BME280;13745;51.470;9.894;2023-08-30T06:33:30;98556.94;;;14.94;86.27
25947;BME280;13745;51.470;9.894;2023-08-30T06:36:15;98561.13;;;15.17;86.10
25947;BME280;13745;51.470;9.894;2023-08-30T06:39:01;98554.56;;;15.27;85.73
25947;BME280;13745;51.470;9.894;2023-08-30T06:41:46;98560.84;;;15.42;85.58
25947;BME280;13745;51.470;9.894;2023-08-30T06:44:33;98547.78;;;15.61;85.13
25947;BME280;13745;51.470;9.894;2023-08-30T06:47:19;98542.22;;;15.68;84.72
25947;BME280;13745;51.470;9.894;2023-08-30T06:50:05;98547.84;;;15.78;84.88
25947;BME280;13745;51.470;9.894;2023-08-30T06:52:53;98550.47;;;15.95;84.47
25947;BME280;13745;51.470;9.894;2023-08-30T06:55:38;98545.81;;;16.19;83.97
25947;BME280;13745;51.470;9.894;2023-08-30T06:58:24;98538.34;;;16.46;83.44
25947;BME280;13745;51.470;9.894;2023-08-30T07:01:11;98538.06;;;16.70;83.10
25947;BME280;13745;51.470;9.894;2023-08-30T07:03:56;98537.69;;;16.93;82.43
25947;BME280;13745;51.470;9.894;2023-08-30T07:06:41;98541.38;;;17.06;82.14
25947;BME280;13745;51.470;9.894;2023-08-30T07:09:26;98536.13;;;17.06;81.89
25947;BME280;13745;51.470;9.894;2023-08-30T07:12:13;98539.44;;;17.10;82.06
25947;BME280;13745;51.470;9.894;2023-08-30T07:14:58;98529.06;;;17.24;81.69
25947;BME280;13745;51.470;9.894;2023-08-30T07:17:44;98527.72;;;17.49;81.64
25947;BME280;13745;51.470;9.894;2023-08-30T07:20:30;98529.00;;;17.73;81.23
25947;BME280;13745;51.470;9.894;2023-08-30T07:23:15;98528.19;;;17.87;80.90
25947;BME280;13745;51.470;9.894;2023-08-30T07:26:00;98527.31;;;17.88;80.77
25947;BME280;13745;51.470;9.894;2023-08-30T07:28:45;98519.78;;;17.82;80.99
25947;BME280;13745;51.470;9.894;2023-08-30T07:31:30;98523.75;;;17.73;81.15
25947;BME280;13745;51.470;9.894;2023-08-30T07:34:17;98510.56;;;17.75;80.92
25947;BME280;13745;51.470;9.894;2023-08-30T07:37:02;98512.34;;;17.74;81.20
25947;BME280;13745;51.470;9.894;2023-08-30T07:39:48;98518.63;;;17.72;81.02
25947;BME280;13745;51.470;9.894;2023-08-30T07:42:33;98516.06;;;17.70;81.22
25947;BME280;13745;51.470;9.894;2023-08-30T07:45:18;98516.06;;;17.70;81.12
25947;BME280;13745;51.470;9.894;2023-08-30T07:48:04;98519.56;;;17.69;80.99
25947;BME280;13745;51.470;9.894;2023-08-30T07:50:50;98517.88;;;17.68;80.95
25947;BME280;13745;51.470;9.894;2023-08-30T07:53:36;98515.34;;;17.66;81.01
25947;BME280;13745;51.470;9.894;2023-08-30T07:56:21;98525.63;;;17.71;80.82
25947;BME280;13745;51.470;9.894;2023-08-30T07:59:06;98525.03;;;17.82;80.73
25947;BME280;13745;51.470;9.894;2023-08-30T08:01:51;98518.97;;;17.95;80.48
25947;BME280;13745;51.470;9.894;2023-08-30T08:04:37;98515.13;;;18.17;79.93
25947;BME280;13745;51.470;9.894;2023-08-30T08:07:23;98516.88;;;18.46;79.23
25947;BME280;13745;51.470;9.894;2023-08-30T08:10:09;98510.00;;;18.74;78.86
25947;BME280;13745;51.470;9.894;2023-08-30T08:12:54;98514.13;;;18.92;78.71
25947;BME280;13745;51.470;9.894;2023-08-30T08:15:39;98507.19;;;19.20;78.10
25947;BME280;13745;51.470;9.894;2023-08-30T08:18:24;98508.34;;;19.43;77.20
25947;BME280;13745;51.470;9.894;2023-08-30T08:21:11;98506.16;;;19.63;76.69
25947;BME280;13745;51.470;9.894;2023-08-30T08:23:57;98505.81;;;19.82;76.59
25947;BME280;13745;51.470;9.894;2023-08-30T08:26:42;98502.63;;;20.04;75.91
25947;BME280;13745;51.470;9.894;2023-08-30T08:29:28;98502.84;;;20.27;75.34
25947;BME280;13745;51.470;9.894;2023-08-30T08:32:13;98495.97;;;20.51;74.84
25947;BME280;13745;51.470;9.894;2023-08-30T08:34:58;98496.31;;;20.72;74.44
25947;BME280;13745;51.470;9.894;2023-08-30T08:37:43;98497.56;;;20.79;74.07
25947;BME280;13745;51.470;9.894;2023-08-30T08:40:29;98487.66;;;20.95;73.43
25947;BME280;13745;51.470;9.894;2023-08-30T08:43:15;98490.88;;;21.12;73.57
25947;BME280;13745;51.470;9.894;2023-08-30T08:46:03;98487.09;;;21.28;72.79
25947;BME280;13745;51.470;9.894;2023-08-30T08:48:50;98489.94;;;21.49;72.20
25947;BME280;13745;51.470;9.894;2023-08-30T08:51:36;98487.69;;;21.69;71.75
25947;BME280;13745;51.470;9.894;2023-08-30T08:54:22;98492.44;;;21.87;71.31
25947;BME280;13745;51.470;9.894;2023-08-30T08:57:09;98488.03;;;21.99;70.17
25947;BME280;13745;51.470;9.894;2023-08-30T08:59:55;98485.19;;;22.02;69.95
25947;BME280;13745;51.470;9.894;2023-08-30T09:02:40;98482.16;;;22.20;70.00
25947;BME280;13745;51.470;9.894;2023-08-30T09:05:27;98487.97;;;22.47;68.82
25947;BME280;13745;51.470;9.894;2023-08-30T09:08:13;98484.28;;;23.17;67.88
25947;BME280;13745;51.470;9.894;2023-08-30T09:11:00;98479.09;;;23.92;65.38
25947;BME280;13745;51.470;9.894;2023-08-30T09:13:47;98479.59;;;24.39;63.93
25947;BME280;13745;51.470;9.894;2023-08-30T09:16:32;98478.03;;;25.09;62.89
25947;BME280;13745;51.470;9.894;2023-08-30T09:19:20;98474.72;;;25.76;61.16
25947;BME280;13745;51.470;9.894;2023-08-30T09:22:05;98477.19;;;26.36;61.03
25947;BME280;13745;51.470;9.894;2023-08-30T09:24:50;98476.25;;;27.21;59.61
25947;BME280;13745;51.470;9.894;2023-08-30T09:27:36;98483.78;;;27.53;58.53
25947;BME280;13745;51.470;9.894;2023-08-30T09:30:24;98473.44;;;28.31;57.33
25947;BME280;13745;51.470;9.894;2023-08-30T09:33:09;98481.75;;;29.05;56.03
25947;BME280;13745;51.470;9.894;2023-08-30T09:35:54;98475.28;;;29.67;55.68
25947;BME280;13745;51.470;9.894;2023-08-30T09:38:40;98472.13;;;30.04;53.91
25947;BME280;13745;51.470;9.894;2023-08-30T09:41:25;98475.81;;;30.03;53.78
25947;BME280;13745;51.470;9.894;2023-08-30T09:44:10;98467.81;;;30.43;52.82
25947;BME280;13745;51.470;9.894;2023-08-30T09:46:57;98473.31;;;30.50;52.76
25947;BME280;13745;51.470;9.894;2023-08-30T09:49:44;98460.59;;;29.62;54.12
25947;BME280;13745;51.470;9.894;2023-08-30T09:52:31;98458.09;;;29.69;53.52
25947;BME280;13745;51.470;9.894;2023-08-30T09:55:18;98458.31;;;30.08;53.13
25947;BME280;13745;51.470;9.894;2023-08-30T09:58:04;98458.09;;;29.69;52.94
25947;BME280;13745;51.470;9.894;2023-08-30T10:00:50;98451.03;;;28.75;54.11
25947;BME280;13745;51.470;9.894;2023-08-30T10:03:36;98441.22;;;28.06;55.05
25947;BME280;13745;51.470;9.894;2023-08-30T10:06:23;98447.84;;;27.39;55.81
25947;BME280;13745;51.470;9.894;2023-08-30T10:09:09;98455.59;;;26.68;56.13
25947;BME280;13745;51.470;9.894;2023-08-30T10:11:54;98452.31;;;25.69;57.75
25947;BME280;13745;51.470;9.894;2023-08-30T10:14:39;98448.50;;;25.33;58.37
25947;BME280;13745;51.470;9.894;2023-08-30T10:17:27;98437.75;;;24.94;58.71
25947;BME280;13745;51.470;9.894;2023-08-30T10:20:14;98435.72;;;24.46;59.85
25947;BME280;13745;51.470;9.894;2023-08-30T10:23:00;98435.78;;;23.93;60.96
25947;BME280;13745;51.470;9.894;2023-08-30T10:25:48;98429.41;;;23.41;61.93
25947;BME280;13745;51.470;9.894;2023-08-30T10:28:36;98430.09;;;23.00;62.53
25947;BME280;13745;51.470;9.894;2023-08-30T10:31:23;98438.97;;;22.65;63.24
25947;BME280;13745;51.470;9.894;2023-08-30T10:34:14;98430.78;;;22.24;64.18
25947;BME280;13745;51.470;9.894;2023-08-30T10:37:02;98436.31;;;21.97;64.47
25947;BME280;13745;51.470;9.894;2023-08-30T10:39:48;98439.28;;;21.92;64.76
25947;BME280;13745;51.470;9.894;2023-08-30T10:42:33;98448.28;;;22.25;64.70
25947;BME280;13745;51.470;9.894;2023-08-30T10:45:23;98427.50;;;24.07;61.75
25947;BME280;13745;51.470;9.894;2023-08-30T10:48:08;98430.34;;;25.38;59.71
25947;BME280;13745;51.470;9.894;2023-08-30T10:50:53;98423.00;;;26.56;57.94
25947;BME280;13745;51.470;9.894;2023-08-30T10:53:40;98419.22;;;26.96;56.55
25947;BME280;13745;51.470;9.894;2023-08-30T10:56:29;98420.84;;;26.22;57.48
25947;BME280;13745;51.470;9.894;2023-08-30T10:59:18;98416.69;;;26.10;57.80
25947;BME280;13745;51.470;9.894;2023-08-30T11:02:04;98416.81;;;25.70;58.35
25947;BME280;13745;51.470;9.894;2023-08-30T11:04:51;98421.09;;;25.23;59.50
25947;BME280;13745;51.470;9.894;2023-08-30T11:07:36;98406.16;;;24.81;59.80
25947;BME280;13745;51.470;9.894;2023-08-30T11:10:23;98405.28;;;24.41;59.94
25947;BME280;13745;51.470;9.894;2023-08-30T11:13:09;98410.84;;;24.37;60.02
25947;BME280;13745;51.470;9.894;2023-08-30T11:15:54;98416.03;;;24.70;59.31
25947;BME280;13745;51.470;9.894;2023-08-30T11:18:39;98397.56;;;24.58;59.17
25947;BME280;13745;51.470;9.894;2023-08-30T11:21:25;98401.47;;;24.13;59.73
25947;BME280;13745;51.470;9.894;2023-08-30T11:24:10;98403.53;;;23.88;59.80
25947;BME280;13745;51.470;9.894;2023-08-30T11:26:57;98397.97;;;24.12;59.37
25947;BME280;13745;51.470;9.894;2023-08-30T11:29:42;98392.78;;;24.31;59.36
25947;BME280;13745;51.470;9.894;2023-08-30T11:32:28;98399.97;;;24.20;59.04
25947;BME280;13745;51.470;9.894;2023-08-30T11:35:13;98396.16;;;23.71;60.23
25947;BME280;13745;51.470;9.894;2023-08-30T11:37:59;98389.22;;;23.26;60.51
25947;BME280;13745;51.470;9.894;2023-08-30T11:40:44;98397.44;;;22.90;61.51
25947;BME280;13745;51.470;9.894;2023-08-30T11:43:31;98391.69;;;22.62;61.97
25947;BME280;13745;51.470;9.894;2023-08-30T11:46:16;98389.38;;;22.47;61.94
25947;BME280;13745;51.470;9.894;2023-08-30T11:49:03;98394.34;;;22.51;62.25
25947;BME280;13745;51.470;9.894;2023-08-30T11:51:48;98384.94;;;22.81;61.79
25947;BME280;13745;51.470;9.894;2023-08-30T11:54:33;98380.09;;;23.19;60.75
25947;BME280;13745;51.470;9.894;2023-08-30T11:57:19;98374.28;;;23.69;60.34
25947;BME280;13745;51.470;9.894;2023-08-30T12:00:11;98368.19;;;24.20;59.04
25947;BME280;13745;51.470;9.894;2023-08-30T12:02:56;98362.84;;;24.61;58.55
25947;BME280;13745;51.470;9.894;2023-08-30T12:05:44;98358.03;;;24.96;57.81
25947;BME280;13745;51.470;9.894;2023-08-30T12:08:31;98355.19;;;25.08;57.24
25947;BME280;13745;51.470;9.894;2023-08-30T12:11:17;98353.00;;;24.83;57.32
25947;BME280;13745;51.470;9.894;2023-08-30T12:14:03;98362.22;;;24.88;57.17
25947;BME280;13745;51.470;9.894;2023-08-30T12:16:50;98355.78;;;24.81;57.22
25947;BME280;13745;51.470;9.894;2023-08-30T12:19:35;98358.88;;;24.96;56.59
25947;BME280;13745;51.470;9.894;2023-08-30T12:22:20;98350.88;;;25.17;56.73
25947;BME280;13745;51.470;9.894;2023-08-30T12:25:15;98350.88;;;25.46;55.76
25947;BME280;13745;51.470;9.894;2023-08-30T12:28:00;98342.03;;;25.65;56.00
25947;BME280;13745;51.470;9.894;2023-08-30T12:30:47;98343.59;;;25.67;55.15
25947;BME280;13745;51.470;9.894;2023-08-30T12:33:34;98329.81;;;25.73;55.08
25947;BME280;13745;51.470;9.894;2023-08-30T12:36:19;98343.19;;;25.72;55.10
25947;BME280;13745;51.470;9.894;2023-08-30T12:39:05;98339.28;;;25.66;54.98
25947;BME280;13745;51.470;9.894;2023-08-30T12:41:50;98323.19;;;25.48;54.25
25947;BME280;13745;51.470;9.894;2023-08-30T12:44:35;98315.38;;;25.37;54.10
25947;BME280;13745;51.470;9.894;2023-08-30T12:47:20;98336.47;;;25.39;54.08
25947;BME280;13745;51.470;9.894;2023-08-30T12:50:07;98316.06;;;25.39;53.32
25947;BME280;13745;51.470;9.894;2023-08-30T12:52:53;98313.84;;;25.44;53.08
25947;BME280;13745;51.470;9.894;2023-08-30T12:55:38;98312.72;;;25.47;53.05
25947;BME280;13745;51.470;9.894;2023-08-30T12:58:24;98317.34;;;25.26;53.20
25947;BME280;13745;51.470;9.894;2023-08-30T13:01:09;98310.88;;;24.99;53.42
25947;BME280;13745;51.470;9.894;2023-08-30T13:03:54;98310.44;;;24.75;53.56
25947;BME280;13745;51.470;9.894;2023-08-30T13:06:41;98300.66;;;24.75;53.54
25947;BME280;13745;51.470;9.894;2023-08-30T13:09:26;98301.50;;;24.76;53.12
25947;BME280;13745;51.470;9.894;2023-08-30T13:12:11;98301.66;;;24.34;53.47
25947;BME280;13745;51.470;9.894;2023-08-30T13:14:56;98297.06;;;23.85;54.29
25947;BME280;13745;51.470;9.894;2023-08-30T13:17:41;98291.50;;;23.46;54.71
25947;BME280;13745;51.470;9.894;2023-08-30T13:20:27;98304.03;;;23.12;55.15
25947;BME280;13745;51.470;9.894;2023-08-30T13:23:13;98294.50;;;22.88;55.70
25947;BME280;13745;51.470;9.894;2023-08-30T13:25:59;98298.09;;;22.76;56.04
25947;BME280;13745;51.470;9.894;2023-08-30T13:28:44;98300.13;;;22.73;56.08
25947;BME280;13745;51.470;9.894;2023-08-30T13:31:29;98291.00;;;22.77;55.89
25947;BME280;13745;51.470;9.894;2023-08-30T13:34:14;98290.69;;;23.13;55.60
25947;BME280;13745;51.470;9.894;2023-08-30T13:36:59;98285.16;;;23.58;54.84
25947;BME280;13745;51.470;9.894;2023-08-30T13:39:45;98291.69;;;23.96;54.35
25947;BME280;13745;51.470;9.894;2023-08-30T13:42:31;98286.88;;;24.10;53.50
25947;BME280;13745;51.470;9.894;2023-08-30T13:45:16;98287.31;;;24.16;53.25
25947;BME280;13745;51.470;9.894;2023-08-30T13:48:02;98285.94;;;24.21;53.60
25947;BME280;13745;51.470;9.894;2023-08-30T13:50:47;98273.22;;;24.36;53.41
25947;BME280;13745;51.470;9.894;2023-08-30T13:53:32;98284.66;;;24.46;53.14
25947;BME280;13745;51.470;9.894;2023-08-30T13:56:19;98271.28;;;24.48;52.82
25947;BME280;13745;51.470;9.894;2023-08-30T13:59:04;98284.00;;;24.54;53.14
25947;BME280;13745;51.470;9.894;2023-08-30T14:01:50;98278.16;;;24.60;52.74
25947;BME280;13745;51.470;9.894;2023-08-30T14:04:35;98277.19;;;24.71;52.60
25947;BME280;13745;51.470;9.894;2023-08-30T14:07:21;98280.84;;;24.79;52.77
25947;BME280;13745;51.470;9.894;2023-08-30T14:10:07;98281.25;;;24.75;52.63
25947;BME280;13745;51.470;9.894;2023-08-30T14:12:54;98283.03;;;24.64;53.05
25947;BME280;13745;51.470;9.894;2023-08-30T14:15:40;98280.66;;;24.61;52.82
25947;BME280;13745;51.470;9.894;2023-08-30T14:18:25;98265.06;;;24.68;52.55
25947;BME280;13745;51.470;9.894;2023-08-30T14:21:11;98280.78;;;24.50;53.21
25947;BME280;13745;51.470;9.894;2023-08-30T14:23:57;98274.59;;;24.40;53.51
25947;BME280;13745;51.470;9.894;2023-08-30T14:26:42;98272.38;;;24.35;53.57
25947;BME280;13745;51.470;9.894;2023-08-30T14:29:29;98265.75;;;24.30;53.75
25947;BME280;13745;51.470;9.894;2023-08-30T14:32:14;98260.25;;;24.33;53.77
25947;BME280;13745;51.470;9.894;2023-08-30T14:34:59;98265.63;;;24.31;53.75
25947;BME280;13745;51.470;9.894;2023-08-30T14:37:44;98260.75;;;24.27;54.19
25947;BME280;13745;51.470;9.894;2023-08-30T14:40:30;98260.03;;;24.25;54.32